sensor_id;sensor_type;location;lat;lon;timestamp;P1;durP1;ratioP1;P2;durP2;ratioP2
11829;SDS011;5972;42.134;24.718;2023-03-08T00:01:59;29.00;;;18.17;;
11829;SDS011;5972;42.134;24.718;2023-03-08T00:04:26;30.57;;;19.93;;
11829;SDS011;5972;42.134;24.718;2023-03-08T00:06:54;27.93;;;18.70;;
11829;SDS011;5972;42.134;24.718;2023-03-08T00:09:21;28.60;;;18.77;;
11829;SDS011;5972;42.134;24.718;2023-03-08T00:11:48;31.97;;;19.67;;
11829;SDS011;5972;42.134;24.718;2023-03-08T00:14:14;25.53;;;18.73;;
11829;SDS011;5972;42.134;24.718;2023-03-08T00:16:41;27.87;;;18.83;;
11829;SDS011;5972;42.134;24.718;2023-03-08T00:19:08;27.13;;;18.23;;
11829;SDS011;5972;42.134;24.718;2023-03-08T00:21:35;28.93;;;17.47;;
11829;SDS011;5972;42.134;24.718;2023-03-08T00:24:03;25.07;;;17.53;;
11829;SDS011;5972;42.134;24.718;2023-03-08T00:26:30;25.37;;;16.60;;
11829;SDS011;5972;42.134;24.718;2023-03-08T00:28:57;23.67;;;16.20;;
11829;SDS011;5972;42.134;24.718;2023-03-08T00:31:24;29.80;;;17.53;;
11829;SDS011;5972;42.134;24.718;2023-03-08T00:33:51;31.03;;;18.07;;
11829;SDS011;5972;42.134;24.718;2023-03-08T00:36:19;30.30;;;18.23;;
11829;SDS011;5972;42.134;24.718;2023-03-08T00:38:46;27.40;;;18.57;;
11829;SDS011;5972;42.134;24.718;2023-03-08T00:41:16;28.00;;;18.83;;
11829;SDS011;5972;42.134;24.718;2023-03-08T00:43:43;26.43;;;18.03;;
11829;SDS011;5972;42.134;24.718;2023-03-08T00:46:10;30.90;;;19.30;;
11829;SDS011;5972;42.134;24.718;2023-03-08T00:48:37;34.70;;;20.57;;
11829;SDS011;5972;42.134;24.718;2023-03-08T00:51:05;38.30;;;20.73;;
11829;SDS011;5972;42.134;24.718;2023-03-08T00:53:32;32.47;;;19.37;;
11829;SDS011;5972;42.134;24.718;2023-03-08T00:55:58;42.73;;;21.07;;
11829;SDS011;5972;42.134;24.718;2023-03-08T00:58:28;33.20;;;20.23;;
11829;SDS011;5972;42.134;24.718;2023-03-08T01:00:55;32.83;;;19.33;;
11829;SDS011;5972;42.134;24.718;2023-03-08T01:03:22;42.17;;;21.10;;
11829;SDS011;5972;42.134;24.718;2023-03-08T01:05:51;33.00;;;20.20;;
11829;SDS011;5972;42.134;24.718;2023-03-08T01:08:19;35.17;;;20.60;;
11829;SDS011;5972;42.134;24.718;2023-03-08T01:10:47;35.33;;;20.17;;
11829;SDS011;5972;42.134;24.718;2023-03-08T01:13:14;30.17;;;20.03;;
11829;SDS011;5972;42.134;24.718;2023-03-08T01:15:43;28.73;;;19.47;;
11829;SDS011;5972;42.134;24.718;2023-03-08T01:18:10;30.53;;;19.37;;
11829;SDS011;5972;42.134;24.718;2023-03-08T01:20:37;29.13;;;18.73;;
11829;SDS011;5972;42.134;24.718;2023-03-08T01:23:03;33.90;;;19.57;;
11829;SDS011;5972;42.134;24.718;2023-03-08T01:25:30;29.90;;;18.00;;
11829;SDS011;5972;42.134;24.718;2023-03-08T01:27:57;24.87;;;17.37;;
11829;SDS011;5972;42.134;24.718;2023-03-08T01:30:24;25.83;;;17.30;;
11829;SDS011;5972;42.134;24.718;2023-03-08T01:32:52;22.80;;;15.97;;
11829;SDS011;5972;42.134;24.718;2023-03-08T01:35:19;25.67;;;17.03;;
11829;SDS011;5972;42.134;24.718;2023-03-08T01:37:49;24.07;;;17.33;;
11829;SDS011;5972;42.134;24.718;2023-03-08T01:40:17;24.90;;;16.47;;
11829;SDS011;5972;42.134;24.718;2023-03-08T01:42:44;27.50;;;16.63;;
11829;SDS011;5972;42.134;24.718;2023-03-08T01:48:12;21.27;;;15.73;;
11829;SDS011;5972;42.134;24.718;2023-03-08T01:50:41;24.33;;;15.93;;
11829;SDS011;5972;42.134;24.718;2023-03-08T01:53:10;21.90;;;16.20;;
11829;SDS011;5972;42.134;24.718;2023-03-08T01:55:38;21.47;;;14.90;;
11829;SDS011;5972;42.134;24.718;2023-03-08T01:58:05;24.33;;;15.83;;
11829;SDS011;5972;42.134;24.718;2023-03-08T02:00:32;23.73;;;17.03;;
11829;SDS011;5972;42.134;24.718;2023-03-08T02:02:59;21.23;;;15.10;;
11829;SDS011;5972;42.134;24.718;2023-03-08T02:05:30;22.63;;;15.67;;
11829;SDS011;5972;42.134;24.718;2023-03-08T02:08:00;23.47;;;15.77;;
11829;SDS011;5972;42.134;24.718;2023-03-08T02:10:26;21.60;;;14.80;;
11829;SDS011;5972;42.134;24.718;2023-03-08T02:12:53;18.90;;;14.07;;
11829;SDS011;5972;42.134;24.718;2023-03-08T02:15:21;20.00;;;13.70;;
11829;SDS011;5972;42.134;24.718;2023-03-08T02:17:48;20.43;;;14.30;;
11829;SDS011;5972;42.134;24.718;2023-03-08T02:20:16;22.43;;;15.00;;
11829;SDS011;5972;42.134;24.718;2023-03-08T02:22:47;21.73;;;14.47;;
11829;SDS011;5972;42.134;24.718;2023-03-08T02:25:18;22.50;;;15.20;;
11829;SDS011;5972;42.134;24.718;2023-03-08T02:27:46;20.70;;;15.10;;
11829;SDS011;5972;42.134;24.718;2023-03-08T02:30:14;39.80;;;23.50;;
11829;SDS011;5972;42.134;24.718;2023-03-08T02:32:43;28.83;;;19.10;;
11829;SDS011;5972;42.134;24.718;2023-03-08T02:35:10;26.03;;;15.60;;
11829;SDS011;5972;42.134;24.718;2023-03-08T02:37:37;24.17;;;14.30;;
11829;SDS011;5972;42.134;24.718;2023-03-08T02:40:06;23.17;;;14.93;;
11829;SDS011;5972;42.134;24.718;2023-03-08T02:42:36;21.30;;;15.00;;
11829;SDS011;5972;42.134;24.718;2023-03-08T02:45:03;24.20;;;15.23;;
11829;SDS011;5972;42.134;24.718;2023-03-08T02:47:31;20.13;;;14.63;;
11829;SDS011;5972;42.134;24.718;2023-03-08T02:49:58;20.00;;;13.23;;
11829;SDS011;5972;42.134;24.718;2023-03-08T02:52:24;18.83;;;13.57;;
11829;SDS011;5972;42.134;24.718;2023-03-08T02:54:51;22.50;;;14.97;;
11829;SDS011;5972;42.134;24.718;2023-03-08T02:57:19;25.83;;;14.70;;
11829;SDS011;5972;42.134;24.718;2023-03-08T02:59:46;19.50;;;13.53;;
11829;SDS011;5972;42.134;24.718;2023-03-08T03:02:13;15.67;;;11.90;;
11829;SDS011;5972;42.134;24.718;2023-03-08T03:04:40;16.50;;;11.23;;
11829;SDS011;5972;42.134;24.718;2023-03-08T03:07:07;17.00;;;11.90;;
11829;SDS011;5972;42.134;24.718;2023-03-08T03:09:34;14.17;;;10.53;;
11829;SDS011;5972;42.134;24.718;2023-03-08T03:12:01;16.13;;;11.83;;
11829;SDS011;5972;42.134;24.718;2023-03-08T03:14:29;17.17;;;12.27;;
11829;SDS011;5972;42.134;24.718;2023-03-08T03:16:56;16.30;;;11.23;;
11829;SDS011;5972;42.134;24.718;2023-03-08T03:19:24;17.63;;;12.50;;
11829;SDS011;5972;42.134;24.718;2023-03-08T03:21:50;16.70;;;11.50;;
11829;SDS011;5972;42.134;24.718;2023-03-08T03:24:17;17.07;;;11.00;;
11829;SDS011;5972;42.134;24.718;2023-03-08T03:26:44;19.53;;;11.30;;
11829;SDS011;5972;42.134;24.718;2023-03-08T03:29:11;15.00;;;11.20;;
11829;SDS011;5972;42.134;24.718;2023-03-08T03:31:39;17.43;;;11.63;;
11829;SDS011;5972;42.134;24.718;2023-03-08T03:34:06;33.33;;;13.93;;
11829;SDS011;5972;42.134;24.718;2023-03-08T03:36:33;34.83;;;16.10;;
11829;SDS011;5972;42.134;24.718;2023-03-08T03:38:59;29.20;;;13.83;;
11829;SDS011;5972;42.134;24.718;2023-03-08T03:41:26;38.53;;;15.17;;
11829;SDS011;5972;42.134;24.718;2023-03-08T03:43:53;25.07;;;13.73;;
11829;SDS011;5972;42.134;24.718;2023-03-08T03:46:20;21.83;;;13.93;;
11829;SDS011;5972;42.134;24.718;2023-03-08T03:48:48;18.33;;;13.23;;
11829;SDS011;5972;42.134;24.718;2023-03-08T03:51:16;33.30;;;13.67;;
11829;SDS011;5972;42.134;24.718;2023-03-08T03:53:44;20.33;;;13.50;;
11829;SDS011;5972;42.134;24.718;2023-03-08T03:56:12;22.03;;;13.20;;
11829;SDS011;5972;42.134;24.718;2023-03-08T03:58:40;19.03;;;12.33;;
11829;SDS011;5972;42.134;24.718;2023-03-08T04:01:07;25.13;;;12.60;;
11829;SDS011;5972;42.134;24.718;2023-03-08T04:03:34;21.40;;;12.37;;
11829;SDS011;5972;42.134;24.718;2023-03-08T04:06:07;20.97;;;12.33;;
11829;SDS011;5972;42.134;24.718;2023-03-08T04:08:34;20.23;;;12.87;;
11829;SDS011;5972;42.134;24.718;2023-03-08T04:11:06;19.80;;;13.03;;
11829;SDS011;5972;42.134;24.718;2023-03-08T04:13:33;24.50;;;13.10;;
11829;SDS011;5972;42.134;24.718;2023-03-08T04:16:06;20.70;;;12.63;;
11829;SDS011;5972;42.134;24.718;2023-03-08T04:18:34;15.97;;;12.03;;
11829;SDS011;5972;42.134;24.718;2023-03-08T04:21:01;22.70;;;11.80;;
11829;SDS011;5972;42.134;24.718;2023-03-08T04:23:29;21.47;;;11.67;;
11829;SDS011;5972;42.134;24.718;2023-03-08T04:25:56;19.73;;;12.20;;
11829;SDS011;5972;42.134;24.718;2023-03-08T04:28:22;20.70;;;12.43;;
11829;SDS011;5972;42.134;24.718;2023-03-08T04:30:49;21.77;;;12.00;;
11829;SDS011;5972;42.134;24.718;2023-03-08T04:33:16;25.27;;;12.60;;
11829;SDS011;5972;42.134;24.718;2023-03-08T04:35:43;22.83;;;12.73;;
11829;SDS011;5972;42.134;24.718;2023-03-08T04:38:10;21.97;;;12.73;;
11829;SDS011;5972;42.134;24.718;2023-03-08T04:40:38;24.47;;;14.07;;
11829;SDS011;5972;42.134;24.718;2023-03-08T04:43:19;23.90;;;13.17;;
11829;SDS011;5972;42.134;24.718;2023-03-08T04:45:46;21.07;;;13.67;;
11829;SDS011;5972;42.134;24.718;2023-03-08T04:48:13;19.20;;;11.33;;
11829;SDS011;5972;42.134;24.718;2023-03-08T04:50:40;21.43;;;12.07;;
11829;SDS011;5972;42.134;24.718;2023-03-08T04:53:06;17.63;;;11.23;;
11829;SDS011;5972;42.134;24.718;2023-03-08T04:55:35;18.00;;;11.13;;
11829;SDS011;5972;42.134;24.718;2023-03-08T04:58:03;15.57;;;10.77;;
11829;SDS011;5972;42.134;24.718;2023-03-08T05:00:30;15.00;;;10.87;;
11829;SDS011;5972;42.134;24.718;2023-03-08T05:02:56;17.23;;;10.60;;
11829;SDS011;5972;42.134;24.718;2023-03-08T05:05:23;19.63;;;12.10;;
11829;SDS011;5972;42.134;24.718;2023-03-08T05:07:50;33.73;;;16.03;;
11829;SDS011;5972;42.134;24.718;2023-03-08T05:10:17;23.60;;;14.27;;
11829;SDS011;5972;42.134;24.718;2023-03-08T05:12:44;22.03;;;13.87;;
11829;SDS011;5972;42.134;24.718;2023-03-08T05:15:12;24.40;;;13.13;;
11829;SDS011;5972;42.134;24.718;2023-03-08T05:17:39;18.73;;;11.03;;
11829;SDS011;5972;42.134;24.718;2023-03-08T05:20:06;18.37;;;12.27;;
11829;SDS011;5972;42.134;24.718;2023-03-08T05:22:34;19.27;;;10.70;;
11829;SDS011;5972;42.134;24.718;2023-03-08T05:25:01;17.03;;;10.83;;
11829;SDS011;5972;42.134;24.718;2023-03-08T05:27:30;16.17;;;10.27;;
11829;SDS011;5972;42.134;24.718;2023-03-08T05:29:57;15.60;;;10.63;;
11829;SDS011;5972;42.134;24.718;2023-03-08T05:32:25;16.90;;;10.63;;
11829;SDS011;5972;42.134;24.718;2023-03-08T05:34:52;20.00;;;11.30;;
11829;SDS011;5972;42.134;24.718;2023-03-08T05:37:20;18.93;;;10.93;;
11829;SDS011;5972;42.134;24.718;2023-03-08T05:39:49;17.33;;;10.67;;
11829;SDS011;5972;42.134;24.718;2023-03-08T05:42:16;16.40;;;10.77;;
11829;SDS011;5972;42.134;24.718;2023-03-08T05:44:44;20.37;;;11.50;;
11829;SDS011;5972;42.134;24.718;2023-03-08T05:47:11;32.27;;;12.93;;
11829;SDS011;5972;42.134;24.718;2023-03-08T05:49:39;15.60;;;10.93;;
11829;SDS011;5972;42.134;24.718;2023-03-08T05:52:06;13.43;;;9.77;;
11829;SDS011;5972;42.134;24.718;2023-03-08T05:54:33;12.03;;;8.53;;
11829;SDS011;5972;42.134;24.718;2023-03-08T05:57:00;11.63;;;9.33;;
11829;SDS011;5972;42.134;24.718;2023-03-08T05:59:26;13.85;;;9.70;;
11829;SDS011;5972;42.134;24.718;2023-03-08T06:01:53;14.93;;;10.70;;
11829;SDS011;5972;42.134;24.718;2023-03-08T06:04:20;11.70;;;8.90;;
11829;SDS011;5972;42.134;24.718;2023-03-08T06:06:48;13.80;;;8.43;;
11829;SDS011;5972;42.134;24.718;2023-03-08T06:09:15;9.82;;;7.95;;
11829;SDS011;5972;42.134;24.718;2023-03-08T06:11:42;15.38;;;7.68;;
11829;SDS011;5972;42.134;24.718;2023-03-08T06:14:09;13.13;;;8.02;;
11829;SDS011;5972;42.134;24.718;2023-03-08T06:16:36;9.85;;;7.82;;
11829;SDS011;5972;42.134;24.718;2023-03-08T06:19:03;11.75;;;8.98;;
11829;SDS011;5972;42.134;24.718;2023-03-08T06:21:29;8.20;;;7.07;;
11829;SDS011;5972;42.134;24.718;2023-03-08T06:23:58;10.00;;;7.38;;
11829;SDS011;5972;42.134;24.718;2023-03-08T06:26:24;12.52;;;7.63;;
11829;SDS011;5972;42.134;24.718;2023-03-08T06:28:51;11.45;;;7.18;;
11829;SDS011;5972;42.134;24.718;2023-03-08T06:31:18;8.40;;;6.72;;
11829;SDS011;5972;42.134;24.718;2023-03-08T06:33:45;19.17;;;7.50;;
11829;SDS011;5972;42.134;24.718;2023-03-08T06:36:13;12.52;;;6.97;;
11829;SDS011;5972;42.134;24.718;2023-03-08T06:38:40;9.25;;;6.68;;
11829;SDS011;5972;42.134;24.718;2023-03-08T06:41:09;10.23;;;7.43;;
11829;SDS011;5972;42.134;24.718;2023-03-08T06:43:37;11.90;;;8.10;;
11829;SDS011;5972;42.134;24.718;2023-03-08T06:46:04;14.52;;;7.70;;
11829;SDS011;5972;42.134;24.718;2023-03-08T06:48:32;16.20;;;8.10;;
11829;SDS011;5972;42.134;24.718;2023-03-08T06:50:59;15.00;;;8.10;;
11829;SDS011;5972;42.134;24.718;2023-03-08T06:53:26;20.10;;;8.48;;
11829;SDS011;5972;42.134;24.718;2023-03-08T06:55:53;13.90;;;7.85;;
11829;SDS011;5972;42.134;24.718;2023-03-08T06:58:21;18.90;;;7.90;;
11829;SDS011;5972;42.134;24.718;2023-03-08T07:00:48;15.48;;;7.28;;
11829;SDS011;5972;42.134;24.718;2023-03-08T07:03:15;13.45;;;6.57;;
11829;SDS011;5972;42.134;24.718;2023-03-08T07:05:41;9.35;;;6.55;;
11829;SDS011;5972;42.134;24.718;2023-03-08T07:08:08;10.82;;;6.78;;
11829;SDS011;5972;42.134;24.718;2023-03-08T07:10:35;11.23;;;6.82;;
11829;SDS011;5972;42.134;24.718;2023-03-08T07:13:02;8.65;;;5.93;;
11829;SDS011;5972;42.134;24.718;2023-03-08T07:15:30;10.68;;;6.72;;
11829;SDS011;5972;42.134;24.718;2023-03-08T07:17:57;10.38;;;6.72;;
11829;SDS011;5972;42.134;24.718;2023-03-08T07:20:25;10.90;;;6.78;;
11829;SDS011;5972;42.134;24.718;2023-03-08T07:22:52;10.60;;;6.60;;
11829;SDS011;5972;42.134;24.718;2023-03-08T07:25:19;12.48;;;6.50;;
11829;SDS011;5972;42.134;24.718;2023-03-08T07:27:46;7.78;;;5.90;;
11829;SDS011;5972;42.134;24.718;2023-03-08T07:30:14;10.00;;;6.60;;
11829;SDS011;5972;42.134;24.718;2023-03-08T07:32:43;8.15;;;5.82;;
11829;SDS011;5972;42.134;24.718;2023-03-08T07:35:11;11.38;;;5.75;;
11829;SDS011;5972;42.134;24.718;2023-03-08T07:37:39;13.23;;;5.78;;
11829;SDS011;5972;42.134;24.718;2023-03-08T07:40:09;7.05;;;5.15;;
11829;SDS011;5972;42.134;24.718;2023-03-08T07:42:39;8.93;;;5.82;;
11829;SDS011;5972;42.134;24.718;2023-03-08T07:48:06;10.32;;;6.30;;
11829;SDS011;5972;42.134;24.718;2023-03-08T07:50:33;9.13;;;6.05;;
11829;SDS011;5972;42.134;24.718;2023-03-08T07:53:00;12.75;;;6.15;;
11829;SDS011;5972;42.134;24.718;2023-03-08T07:55:28;10.82;;;5.82;;
11829;SDS011;5972;42.134;24.718;2023-03-08T07:57:55;11.63;;;5.88;;
11829;SDS011;5972;42.134;24.718;2023-03-08T08:00:22;9.05;;;6.18;;
11829;SDS011;5972;42.134;24.718;2023-03-08T08:02:49;6.13;;;5.43;;
11829;SDS011;5972;42.134;24.718;2023-03-08T08:05:19;9.82;;;5.47;;
11829;SDS011;5972;42.134;24.718;2023-03-08T08:07:46;11.52;;;5.57;;
11829;SDS011;5972;42.134;24.718;2023-03-08T08:10:13;6.53;;;5.90;;
11829;SDS011;5972;42.134;24.718;2023-03-08T08:12:40;10.20;;;6.10;;
11829;SDS011;5972;42.134;24.718;2023-03-08T08:15:07;6.35;;;5.50;;
11829;SDS011;5972;42.134;24.718;2023-03-08T08:17:35;7.93;;;5.78;;
11829;SDS011;5972;42.134;24.718;2023-03-08T08:20:01;9.75;;;5.93;;
11829;SDS011;5972;42.134;24.718;2023-03-08T08:22:33;10.07;;;5.40;;
11829;SDS011;5972;42.134;24.718;2023-03-08T08:25:00;12.43;;;6.20;;
11829;SDS011;5972;42.134;24.718;2023-03-08T08:27:27;8.70;;;6.25;;
11829;SDS011;5972;42.134;24.718;2023-03-08T08:29:54;10.13;;;6.18;;
11829;SDS011;5972;42.134;24.718;2023-03-08T08:32:21;9.18;;;6.32;;
11829;SDS011;5972;42.134;24.718;2023-03-08T08:34:48;12.60;;;6.70;;
11829;SDS011;5972;42.134;24.718;2023-03-08T08:37:15;8.00;;;6.57;;
11829;SDS011;5972;42.134;24.718;2023-03-08T08:39:43;9.18;;;6.57;;
11829;SDS011;5972;42.134;24.718;2023-03-08T08:42:10;10.38;;;5.53;;
11829;SDS011;5972;42.134;24.718;2023-03-08T08:44:37;8.25;;;5.80;;
11829;SDS011;5972;42.134;24.718;2023-03-08T08:47:04;8.60;;;4.80;;
11829;SDS011;5972;42.134;24.718;2023-03-08T08:49:31;6.78;;;4.18;;
11829;SDS011;5972;42.134;24.718;2023-03-08T08:51:57;8.80;;;4.68;;
11829;SDS011;5972;42.134;24.718;2023-03-08T08:54:24;6.03;;;4.60;;
11829;SDS011;5972;42.134;24.718;2023-03-08T08:56:52;8.52;;;4.50;;
11829;SDS011;5972;42.134;24.718;2023-03-08T08:59:19;4.20;;;3.80;;
11829;SDS011;5972;42.134;24.718;2023-03-08T09:01:46;4.47;;;3.58;;
11829;SDS011;5972;42.134;24.718;2023-03-08T09:04:13;7.35;;;3.97;;
11829;SDS011;5972;42.134;24.718;2023-03-08T09:06:40;4.03;;;3.38;;
11829;SDS011;5972;42.134;24.718;2023-03-08T09:09:08;6.57;;;3.72;;
11829;SDS011;5972;42.134;24.718;2023-03-08T09:11:35;4.72;;;3.53;;
11829;SDS011;5972;42.134;24.718;2023-03-08T09:14:03;5.80;;;3.75;;
11829;SDS011;5972;42.134;24.718;2023-03-08T09:16:30;5.18;;;3.90;;
11829;SDS011;5972;42.134;24.718;2023-03-08T09:18:58;4.78;;;3.83;;
11829;SDS011;5972;42.134;24.718;2023-03-08T09:21:26;6.88;;;4.15;;
11829;SDS011;5972;42.134;24.718;2023-03-08T09:23:53;5.55;;;4.00;;
11829;SDS011;5972;42.134;24.718;2023-03-08T09:26:20;5.15;;;3.40;;
11829;SDS011;5972;42.134;24.718;2023-03-08T09:28:47;6.18;;;4.25;;
11829;SDS011;5972;42.134;24.718;2023-03-08T09:31:16;3.80;;;3.40;;
11829;SDS011;5972;42.134;24.718;2023-03-08T09:33:43;7.13;;;3.63;;
11829;SDS011;5972;42.134;24.718;2023-03-08T09:36:12;8.50;;;3.55;;
11829;SDS011;5972;42.134;24.718;2023-03-08T09:38:39;6.63;;;4.15;;
11829;SDS011;5972;42.134;24.718;2023-03-08T09:41:11;4.85;;;4.35;;
11829;SDS011;5972;42.134;24.718;2023-03-08T09:43:59;5.65;;;3.85;;
11829;SDS011;5972;42.134;24.718;2023-03-08T09:46:39;9.43;;;4.40;;
11829;SDS011;5972;42.134;24.718;2023-03-08T09:49:11;6.70;;;4.45;;
11829;SDS011;5972;42.134;24.718;2023-03-08T09:51:43;5.68;;;4.30;;
11829;SDS011;5972;42.134;24.718;2023-03-08T09:54:16;10.38;;;4.60;;
11829;SDS011;5972;42.134;24.718;2023-03-08T09:56:46;9.73;;;4.72;;
11829;SDS011;5972;42.134;24.718;2023-03-08T09:59:15;4.82;;;4.30;;
11829;SDS011;5972;42.134;24.718;2023-03-08T10:01:50;8.18;;;4.60;;
11829;SDS011;5972;42.134;24.718;2023-03-08T10:04:34;4.90;;;4.30;;
11829;SDS011;5972;42.134;24.718;2023-03-08T10:07:14;8.52;;;4.03;;
11829;SDS011;5972;42.134;24.718;2023-03-08T10:09:52;5.43;;;4.20;;
11829;SDS011;5972;42.134;24.718;2023-03-08T10:12:29;3.85;;;3.35;;
11829;SDS011;5972;42.134;24.718;2023-03-08T10:15:02;5.97;;;3.47;;
11829;SDS011;5972;42.134;24.718;2023-03-08T10:17:38;7.10;;;3.13;;
11829;SDS011;5972;42.134;24.718;2023-03-08T10:20:13;3.03;;;2.83;;
11829;SDS011;5972;42.134;24.718;2023-03-08T10:22:45;4.43;;;2.90;;
11829;SDS011;5972;42.134;24.718;2023-03-08T10:25:17;4.47;;;2.45;;
11829;SDS011;5972;42.134;24.718;2023-03-08T10:27:50;2.53;;;1.77;;
11829;SDS011;5972;42.134;24.718;2023-03-08T10:30:20;2.58;;;2.00;;
11829;SDS011;5972;42.134;24.718;2023-03-08T10:32:50;1.60;;;1.50;;
11829;SDS011;5972;42.134;24.718;2023-03-08T10:35:29;2.25;;;1.98;;
11829;SDS011;5972;42.134;24.718;2023-03-08T10:37:58;2.88;;;2.10;;
11829;SDS011;5972;42.134;24.718;2023-03-08T10:40:25;2.45;;;2.25;;
11829;SDS011;5972;42.134;24.718;2023-03-08T10:42:54;2.03;;;1.90;;
11829;SDS011;5972;42.134;24.718;2023-03-08T10:45:25;2.25;;;1.83;;
11829;SDS011;5972;42.134;24.718;2023-03-08T10:47:55;3.10;;;2.00;;
11829;SDS011;5972;42.134;24.718;2023-03-08T10:50:24;2.15;;;1.95;;
11829;SDS011;5972;42.134;24.718;2023-03-08T10:52:53;2.30;;;1.98;;
11829;SDS011;5972;42.134;24.718;2023-03-08T10:55:20;3.20;;;1.92;;
11829;SDS011;5972;42.134;24.718;2023-03-08T10:57:49;3.70;;;2.00;;
11829;SDS011;5972;42.134;24.718;2023-03-08T11:03:14;3.40;;;1.70;;
11829;SDS011;5972;42.134;24.718;2023-03-08T11:05:50;3.50;;;1.70;;
11829;SDS011;5972;42.134;24.718;2023-03-08T11:08:19;2.13;;;1.70;;
11829;SDS011;5972;42.134;24.718;2023-03-08T11:10:47;2.40;;;1.65;;
11829;SDS011;5972;42.134;24.718;2023-03-08T11:13:28;2.30;;;1.90;;
11829;SDS011;5972;42.134;24.718;2023-03-08T11:15:59;3.97;;;1.90;;
11829;SDS011;5972;42.134;24.718;2023-03-08T11:18:38;2.20;;;1.77;;
11829;SDS011;5972;42.134;24.718;2023-03-08T11:21:13;3.65;;;1.90;;
11829;SDS011;5972;42.134;24.718;2023-03-08T11:23:52;4.18;;;2.03;;
11829;SDS011;5972;42.134;24.718;2023-03-08T11:26:28;1.83;;;1.73;;
11829;SDS011;5972;42.134;24.718;2023-03-08T11:29:14;5.43;;;2.30;;
11829;SDS011;5972;42.134;24.718;2023-03-08T11:31:50;3.60;;;1.98;;
11829;SDS011;5972;42.134;24.718;2023-03-08T11:37:22;3.65;;;2.20;;
11829;SDS011;5972;42.134;24.718;2023-03-08T11:40:00;2.35;;;1.60;;
11829;SDS011;5972;42.134;24.718;2023-03-08T11:42:38;2.63;;;1.80;;
11829;SDS011;5972;42.134;24.718;2023-03-08T11:45:14;2.53;;;1.90;;
11829;SDS011;5972;42.134;24.718;2023-03-08T11:48:10;1.90;;;1.63;;
11829;SDS011;5972;42.134;24.718;2023-03-08T11:50:54;3.80;;;2.10;;
11829;SDS011;5972;42.134;24.718;2023-03-08T11:53:31;5.63;;;2.25;;
11829;SDS011;5972;42.134;24.718;2023-03-08T11:56:10;3.20;;;1.65;;
11829;SDS011;5972;42.134;24.718;2023-03-08T11:58:51;2.05;;;1.85;;
11829;SDS011;5972;42.134;24.718;2023-03-08T12:01:23;1.67;;;1.58;;
11829;SDS011;5972;42.134;24.718;2023-03-08T12:03:56;3.50;;;1.70;;
11829;SDS011;5972;42.134;24.718;2023-03-08T12:06:28;1.92;;;1.50;;
11829;SDS011;5972;42.134;24.718;2023-03-08T12:09:00;2.15;;;1.65;;
11829;SDS011;5972;42.134;24.718;2023-03-08T12:11:32;1.75;;;1.63;;
11829;SDS011;5972;42.134;24.718;2023-03-08T12:14:04;1.88;;;1.48;;
11829;SDS011;5972;42.134;24.718;2023-03-08T12:16:43;1.95;;;1.52;;
11829;SDS011;5972;42.134;24.718;2023-03-08T12:19:16;1.33;;;1.20;;
11829;SDS011;5972;42.134;24.718;2023-03-08T12:21:53;1.48;;;1.38;;
11829;SDS011;5972;42.134;24.718;2023-03-08T12:24:30;2.15;;;1.58;;
11829;SDS011;5972;42.134;24.718;2023-03-08T12:27:05;1.55;;;1.25;;
11829;SDS011;5972;42.134;24.718;2023-03-08T12:29:38;1.60;;;1.30;;
11829;SDS011;5972;42.134;24.718;2023-03-08T12:32:09;3.63;;;1.30;;
11829;SDS011;5972;42.134;24.718;2023-03-08T12:34:38;1.42;;;1.30;;
11829;SDS011;5972;42.134;24.718;2023-03-08T12:37:18;2.85;;;1.40;;
11829;SDS011;5972;42.134;24.718;2023-03-08T12:39:58;2.15;;;1.42;;
11829;SDS011;5972;42.134;24.718;2023-03-08T12:42:33;1.52;;;1.42;;
11829;SDS011;5972;42.134;24.718;2023-03-08T12:45:06;2.83;;;1.40;;
11829;SDS011;5972;42.134;24.718;2023-03-08T12:47:35;3.92;;;1.60;;
11829;SDS011;5972;42.134;24.718;2023-03-08T12:50:06;3.50;;;1.48;;
11829;SDS011;5972;42.134;24.718;2023-03-08T12:52:37;4.05;;;1.67;;
11829;SDS011;5972;42.134;24.718;2023-03-08T12:55:04;1.88;;;1.45;;
11829;SDS011;5972;42.134;24.718;2023-03-08T12:57:45;2.08;;;1.40;;
11829;SDS011;5972;42.134;24.718;2023-03-08T13:00:23;4.35;;;1.38;;
11829;SDS011;5972;42.134;24.718;2023-03-08T13:02:59;2.78;;;1.35;;
11829;SDS011;5972;42.134;24.718;2023-03-08T13:05:29;2.42;;;1.40;;
11829;SDS011;5972;42.134;24.718;2023-03-08T13:08:04;1.50;;;1.20;;
11829;SDS011;5972;42.134;24.718;2023-03-08T13:10:52;2.55;;;1.55;;
11829;SDS011;5972;42.134;24.718;2023-03-08T13:13:25;2.47;;;1.73;;
11829;SDS011;5972;42.134;24.718;2023-03-08T13:16:04;2.38;;;1.40;;
11829;SDS011;5972;42.134;24.718;2023-03-08T13:18:43;5.22;;;1.70;;
11829;SDS011;5972;42.134;24.718;2023-03-08T13:21:15;2.22;;;1.75;;
11829;SDS011;5972;42.134;24.718;2023-03-08T13:23:52;2.42;;;1.50;;
11829;SDS011;5972;42.134;24.718;2023-03-08T13:26:28;2.15;;;1.70;;
11829;SDS011;5972;42.134;24.718;2023-03-08T13:29:09;2.08;;;1.52;;
11829;SDS011;5972;42.134;24.718;2023-03-08T13:31:39;2.15;;;1.30;;
11829;SDS011;5972;42.134;24.718;2023-03-08T13:34:18;1.98;;;1.38;;
11829;SDS011;5972;42.134;24.718;2023-03-08T13:36:49;1.73;;;1.40;;
11829;SDS011;5972;42.134;24.718;2023-03-08T13:39:18;3.30;;;1.60;;
11829;SDS011;5972;42.134;24.718;2023-03-08T13:41:46;2.13;;;1.60;;
11829;SDS011;5972;42.134;24.718;2023-03-08T13:44:14;2.83;;;1.20;;
11829;SDS011;5972;42.134;24.718;2023-03-08T13:46:42;1.98;;;1.67;;
11829;SDS011;5972;42.134;24.718;2023-03-08T13:49:12;5.72;;;1.80;;
11829;SDS011;5972;42.134;24.718;2023-03-08T13:51:42;5.85;;;1.90;;
11829;SDS011;5972;42.134;24.718;2023-03-08T13:54:13;3.15;;;1.45;;
11829;SDS011;5972;42.134;24.718;2023-03-08T13:56:43;5.28;;;1.60;;
11829;SDS011;5972;42.134;24.718;2023-03-08T13:59:15;2.30;;;1.50;;
11829;SDS011;5972;42.134;24.718;2023-03-08T14:01:48;1.63;;;1.45;;
11829;SDS011;5972;42.134;24.718;2023-03-08T14:04:18;2.35;;;1.52;;
11829;SDS011;5972;42.134;24.718;2023-03-08T14:06:47;2.20;;;1.52;;
11829;SDS011;5972;42.134;24.718;2023-03-08T14:09:16;2.85;;;1.58;;
11829;SDS011;5972;42.134;24.718;2023-03-08T14:11:44;2.65;;;1.63;;
11829;SDS011;5972;42.134;24.718;2023-03-08T14:14:21;4.20;;;1.52;;
11829;SDS011;5972;42.134;24.718;2023-03-08T14:16:52;3.47;;;1.50;;
11829;SDS011;5972;42.134;24.718;2023-03-08T14:19:20;1.48;;;1.38;;
11829;SDS011;5972;42.134;24.718;2023-03-08T14:21:50;1.33;;;1.23;;
11829;SDS011;5972;42.134;24.718;2023-03-08T14:24:20;1.50;;;1.40;;
11829;SDS011;5972;42.134;24.718;2023-03-08T14:26:57;5.07;;;1.98;;
11829;SDS011;5972;42.134;24.718;2023-03-08T14:29:26;2.38;;;1.50;;
11829;SDS011;5972;42.134;24.718;2023-03-08T14:32:01;1.73;;;1.50;;
11829;SDS011;5972;42.134;24.718;2023-03-08T14:34:31;3.33;;;1.50;;
11829;SDS011;5972;42.134;24.718;2023-03-08T14:37:00;5.28;;;2.88;;
11829;SDS011;5972;42.134;24.718;2023-03-08T14:39:31;1.65;;;1.40;;
11829;SDS011;5972;42.134;24.718;2023-03-08T14:42:08;1.50;;;1.33;;
11829;SDS011;5972;42.134;24.718;2023-03-08T14:44:40;7.93;;;1.90;;
11829;SDS011;5972;42.134;24.718;2023-03-08T14:47:08;3.28;;;2.10;;
11829;SDS011;5972;42.134;24.718;2023-03-08T14:49:36;1.98;;;1.70;;
11829;SDS011;5972;42.134;24.718;2023-03-08T14:52:03;2.38;;;1.70;;
11829;SDS011;5972;42.134;24.718;2023-03-08T14:54:30;10.85;;;2.42;;
11829;SDS011;5972;42.134;24.718;2023-03-08T14:57:00;2.75;;;1.85;;
11829;SDS011;5972;42.134;24.718;2023-03-08T14:59:35;5.28;;;1.52;;
11829;SDS011;5972;42.134;24.718;2023-03-08T15:02:07;2.65;;;1.60;;